Time;durP1;ratioP1;P1;durP2;ratioP2;P2;SDS_P1;SDS_P2;PMS_P1;PMS_P2;Temp;Humidity;BMP_temperature;BMP_pressure;BME280_temperature;BME280_humidity;BME280_pressure;Samples;Min_cycle;Max_cycle;Signal;HPM_P1;HPM_P2
2022/05/24 00:00:02;;;;;;;2.95;1.65;;;;;;;19.09;61.13;99447.56;4174962;28;20049;-65
2022/05/24 00:02:16;;;;;;;2.45;1.25;;;;;;;19.13;60.20;99449.19;4174677;28;20041;-65
2022/05/24 00:04:19;;;;;;;1.88;1.42;;;;;;;19.18;60.24;99451.63;4177795;28;20033;-65
2022/05/24 00:06:26;;;;;;;6.32;1.40;;;;;;;19.18;61.83;99463.03;4180686;28;20124;-65
2022/05/24 00:08:29;;;;;;;4.90;1.55;;;;;;;19.13;61.33;99464.97;4172123;28;20041;-65
2022/05/24 00:10:33;;;;;;;2.95;1.40;;;;;;;19.14;62.00;99460.56;4173005;28;20052;-65
2022/05/24 00:12:38;;;;;;;1.33;1.23;;;;;;;19.12;61.97;99463.25;4180499;28;20584;-65
2022/05/24 00:17:01;;;;;;;3.30;1.60;;;;;;;19.11;61.64;99451.00;4175901;28;20033;-65
2022/05/24 00:19:05;;;;;;;2.92;1.55;;;;;;;19.14;61.27;99456.19;4173343;28;20102;-65
2022/05/24 00:21:08;;;;;;;3.72;1.55;;;;;;;19.12;61.29;99455.34;4177531;28;20047;-65
2022/05/24 00:23:12;;;;;;;3.05;1.60;;;;;;;19.17;60.85;99452.53;4178014;28;20055;-65
2022/05/24 00:25:15;;;;;;;2.05;1.70;;;;;;;19.21;59.92;99437.50;4172519;28;20533;-65
2022/05/24 00:27:18;;;;;;;3.88;1.95;;;;;;;19.24;59.43;99440.00;4169405;28;20064;-65
2022/05/24 00:29:21;;;;;;;1.45;1.30;;;;;;;19.18;59.96;99451.63;4176254;28;20057;-65
2022/05/24 00:31:24;;;;;;;2.25;1.63;;;;;;;19.15;60.35;99457.88;4176118;28;20044;-65
2022/05/24 00:33:27;;;;;;;2.28;1.70;;;;;;;19.14;60.80;99461.44;4164544;28;20076;-65
2022/05/24 00:35:32;;;;;;;2.10;1.63;;;;;;;19.06;61.07;99468.75;4177197;28;20490;-65
2022/05/24 00:37:38;;;;;;;2.78;1.75;;;;;;;19.08;61.74;99468.69;4176475;28;20044;-65
2022/05/24 00:39:41;;;;;;;3.17;1.65;;;;;;;19.08;61.35;99471.34;4181708;28;20135;-65
2022/05/24 00:41:56;;;;;;;1.80;1.70;;;;;;;19.09;61.71;99470.44;4174793;28;20195;-65
2022/05/24 00:44:03;;;;;;;1.98;1.63;;;;;;;19.08;61.41;99466.06;4177226;28;20052;-65
2022/05/24 00:46:10;;;;;;;2.10;1.90;;;;;;;19.06;60.48;99460.84;4176748;28;20037;-65
2022/05/24 00:48:22;;;;;;;2.92;1.88;;;;;;;19.10;60.26;99454.56;4170955;28;20033;-65
2022/05/24 00:50:28;;;;;;;2.83;1.85;;;;;;;19.08;59.91;99451.09;4173344;28;20032;-66
2022/05/24 00:52:43;;;;;;;2.53;1.80;;;;;;;19.16;59.52;99453.47;4172345;28;20124;-65
2022/05/24 00:54:46;;;;;;;1.83;1.63;;;;;;;19.05;60.39;99459.13;4191789;28;20396;-65
2022/05/24 00:56:56;;;;;;;2.33;1.80;;;;;;;19.10;61.42;99457.19;4171468;28;20041;-65
2022/05/24 00:59:04;;;;;;;1.90;1.70;;;;;;;19.12;61.13;99457.13;4175543;28;20037;-65
2022/05/24 01:01:20;;;;;;;4.90;2.47;;;;;;;19.11;61.23;99461.53;4180150;28;20043;-65
2022/05/24 01:03:23;;;;;;;5.05;2.05;;;;;;;19.10;61.82;99464.22;4170921;28;20032;-66
2022/05/24 01:05:30;;;;;;;5.38;1.90;;;;;;;19.06;61.57;99458.22;4186532;28;20140;-66
2022/05/24 01:07:36;;;;;;;2.70;1.73;;;;;;;18.97;61.61;99454.16;4173655;28;20040;-66
2022/05/24 01:09:44;;;;;;;10.57;2.38;;;;;;;18.87;61.89;99454.56;4165099;28;20132;-65
2022/05/24 01:11:50;;;;;;;3.58;1.85;;;;;;;18.75;61.80;99448.78;4175609;28;20469;-65
2022/05/24 01:13:55;;;;;;;2.97;1.70;;;;;;;18.61;62.36;99451.03;4180711;28;20029;-66
2022/05/24 01:15:58;;;;;;;3.67;2.25;;;;;;;18.72;62.56;99448.88;4178447;28;20447;-66
2022/05/24 01:18:02;;;;;;;4.45;1.80;;;;;;;18.73;62.38;99455.00;4176097;28;20055;-66
2022/05/24 01:20:06;;;;;;;2.90;1.65;;;;;;;18.84;62.14;99452.84;4164889;28;20071;-67
2022/05/24 01:22:25;;;;;;;2.10;1.77;;;;;;;18.77;62.46;99451.34;4164894;28;20061;-66
2022/05/24 01:24:39;;;;;;;4.07;1.90;;;;;;;18.73;62.96;99461.13;4163891;28;20461;-66
2022/05/24 01:26:49;;;;;;;5.10;1.85;;;;;;;18.67;63.51;99458.72;4171605;28;20049;-66
2022/05/24 01:28:55;;;;;;;3.88;2.08;;;;;;;18.73;63.56;99458.47;4167944;28;20072;-66
2022/05/24 01:31:00;;;;;;;3.80;2.10;;;;;;;18.72;63.83;99461.16;4166352;28;20402;-66
2022/05/24 01:37:46;;;;;;;5.70;2.50;;;;;;;18.70;63.54;99450.69;4176015;28;20050;-66
2022/05/24 01:39:53;;;;;;;4.00;2.13;;;;;;;18.69;63.48;99449.00;4173725;28;20044;-65
2022/05/24 01:41:58;;;;;;;3.72;2.35;;;;;;;18.63;63.77;99439.53;4175660;28;20044;-65
2022/05/24 01:44:01;;;;;;;2.90;1.92;;;;;;;18.71;63.86;99446.31;4170721;28;20053;-65
2022/05/24 01:46:09;;;;;;;3.08;1.98;;;;;;;18.59;64.00;99443.19;4171174;28;20099;-65
2022/05/24 01:48:16;;;;;;;3.17;2.17;;;;;;;18.55;64.03;99449.47;4176382;28;20052;-65
2022/05/24 01:50:23;;;;;;;4.50;2.72;;;;;;;18.45;63.87;99446.28;4171026;28;20041;-65
2022/05/24 01:52:33;;;;;;;3.55;2.10;;;;;;;18.51;64.35;99439.09;4172830;28;20441;-65
2022/05/24 01:54:40;;;;;;;5.13;2.35;;;;;;;18.50;64.68;99435.63;4168922;28;20084;-66
2022/05/24 01:56:53;;;;;;;4.85;2.15;;;;;;;18.47;64.38;99441.84;4183106;28;20036;-66
2022/05/24 01:59:01;;;;;;;7.55;2.42;;;;;;;18.53;64.51;99427.63;4174563;28;20033;-66
2022/05/24 02:01:07;;;;;;;3.88;2.25;;;;;;;18.56;64.16;99432.78;4167136;28;20072;-66
2022/05/24 02:03:13;;;;;;;7.45;2.85;;;;;;;18.39;64.47;99433.34;4172199;28;20063;-66
2022/05/24 02:05:32;;;;;;;3.85;2.50;;;;;;;18.26;64.69;99429.44;4176345;28;20048;-66
2022/05/24 02:07:35;;;;;;;5.50;2.28;;;;;;;18.22;65.27;99433.91;4173183;28;20065;-67
2022/05/24 02:09:40;;;;;;;3.58;2.20;;;;;;;18.18;65.18;99427.06;4169711;28;20041;-66
2022/05/24 02:11:43;;;;;;;6.93;2.65;;;;;;;18.18;65.10;99428.81;4177335;28;20045;-66
2022/05/24 02:13:48;;;;;;;5.75;2.88;;;;;;;18.24;65.45;99428.63;4177457;28;20037;-66
2022/05/24 02:15:56;;;;;;;4.95;3.03;;;;;;;18.29;64.91;99426.69;4169410;28;20037;-66
2022/05/24 02:18:05;;;;;;;4.95;2.78;;;;;;;18.36;65.06;99425.56;4176959;28;20045;-66
2022/05/24 02:20:12;;;;;;;4.63;2.58;;;;;;;18.35;65.09;99410.69;4174094;28;20399;-66
2022/05/24 02:22:19;;;;;;;4.75;3.10;;;;;;;18.30;65.40;99404.72;4179248;28;20041;-66
2022/05/24 02:24:24;;;;;;;4.90;2.70;;;;;;;18.28;65.21;99411.81;4162223;28;20399;-66
2022/05/24 02:26:28;;;;;;;3.65;2.28;;;;;;;18.37;65.56;99406.25;4164107;28;20043;-66
2022/05/24 02:28:31;;;;;;;9.88;3.08;;;;;;;18.37;65.12;99406.25;4179120;28;20041;-66
2022/05/24 02:30:37;;;;;;;4.50;2.70;;;;;;;18.39;65.10;99396.50;4178281;28;20494;-66
2022/05/24 02:32:41;;;;;;;5.95;3.10;;;;;;;18.43;65.24;99390.22;4190090;28;20040;-66
2022/05/24 02:34:44;;;;;;;4.00;2.67;;;;;;;18.50;65.42;99388.25;4170816;28;20533;-68
2022/05/24 02:36:47;;;;;;;5.65;2.90;;;;;;;18.43;65.11;99390.22;4163541;28;20072;-66
2022/05/24 02:38:50;;;;;;;5.38;2.88;;;;;;;18.26;65.53;99389.97;4179053;28;20141;-65
2022/05/24 02:43:13;;;;;;;6.05;2.45;;;;;;;18.19;66.16;99385.81;4178128;28;20131;-66
2022/05/24 02:45:17;;;;;;;4.20;2.90;;;;;;;18.14;66.53;99393.88;4170664;28;20041;-66
2022/05/24 02:47:19;;;;;;;3.85;2.65;;;;;;;18.14;66.09;99378.94;4171893;28;20065;-64
2022/05/24 02:49:24;;;;;;;3.92;2.78;;;;;;;18.14;66.50;99378.09;4173128;28;20411;-65
2022/05/24 02:51:27;;;;;;;5.22;3.28;;;;;;;18.07;66.49;99385.31;4170242;28;20044;-65
2022/05/24 02:53:31;;;;;;;6.18;3.40;;;;;;;18.23;66.42;99380.41;4171262;28;20347;-65
2022/05/24 02:55:34;;;;;;;4.28;3.03;;;;;;;18.08;66.59;99387.03;4166540;28;20041;-65
2022/05/24 02:57:37;;;;;;;4.72;2.90;;;;;;;17.99;67.02;99387.38;4193432;28;20036;-65
2022/05/24 02:59:40;;;;;;;4.95;3.20;;;;;;;17.99;67.68;99395.25;4174342;28;20041;-66
2022/05/24 03:01:45;;;;;;;4.38;2.88;;;;;;;17.95;67.34;99389.22;4178344;28;20073;-65
2022/05/24 03:03:50;;;;;;;6.90;3.20;;;;;;;17.98;67.53;99393.53;4186266;28;20128;-66
2022/05/24 03:05:55;;;;;;;5.88;3.65;;;;;;;17.96;67.78;99393.59;4172987;28;20544;-65
2022/05/24 03:10:18;;;;;;;4.57;2.92;;;;;;;17.97;67.94;99397.06;4184824;28;20128;-65
2022/05/24 03:14:41;;;;;;;3.67;2.90;;;;;;;17.97;68.02;99399.69;4171564;28;20042;-65
2022/05/24 03:16:52;;;;;;;10.10;4.30;;;;;;;17.99;68.28;99404.91;4177290;28;20132;-65
2022/05/24 03:18:57;;;;;;;6.28;3.83;;;;;;;17.94;68.47;99402.44;4176601;28;20086;-65
2022/05/24 03:21:01;;;;;;;6.00;3.58;;;;;;;17.96;68.36;99403.25;4173080;28;20033;-65
2022/05/24 03:23:04;;;;;;;7.82;3.85;;;;;;;18.05;68.54;99405.56;4167846;28;20037;-65
2022/05/24 03:25:08;;;;;;;6.13;4.22;;;;;;;17.98;68.68;99411.94;4175321;28;20045;-65
2022/05/24 03:27:13;;;;;;;5.93;4.13;;;;;;;17.95;68.99;99406.78;4177588;28;20124;-65
2022/05/24 03:29:16;;;;;;;6.13;4.93;;;;;;;17.78;69.42;99408.19;4174503;28;20033;-66
2022/05/24 03:31:19;;;;;;;4.05;3.30;;;;;;;17.74;69.21;99408.28;4180537;28;20405;-65
2022/05/24 03:33:24;;;;;;;5.75;4.18;;;;;;;17.69;69.73;99402.34;4174886;28;20060;-65
2022/05/24 03:35:27;;;;;;;6.47;4.28;;;;;;;17.78;69.53;99400.28;4170541;28;20103;-65
2022/05/24 03:37:33;;;;;;;5.63;4.07;;;;;;;17.74;68.69;99401.28;4172852;28;20571;-65
2022/05/24 03:39:37;;;;;;;5.65;3.20;;;;;;;17.64;69.38;99399.88;4171312;28;20140;-65
2022/05/24 03:41:43;;;;;;;6.47;4.30;;;;;;;17.68;69.48;99401.47;4173880;28;20136;-65
2022/05/24 03:43:46;;;;;;;4.47;3.28;;;;;;;17.73;69.54;99403.97;4179809;28;20037;-66
2022/05/24 03:45:49;;;;;;;8.93;3.95;;;;;;;17.68;69.63;99398.00;4176769;28;20204;-66
2022/05/24 03:47:53;;;;;;;5.97;3.50;;;;;;;17.73;69.37;99402.19;4176611;28;20043;-65
2022/05/24 03:49:55;;;;;;;5.65;2.97;;;;;;;17.69;69.59;99408.44;4177644;28;20402;-67
2022/05/24 03:51:58;;;;;;;7.40;3.85;;;;;;;17.86;69.84;99405.28;4174291;28;20403;-74
2022/05/24 03:54:03;;;;;;;5.65;3.80;;;;;;;18.01;69.03;99403.94;4170767;28;20406;-75
2022/05/24 03:56:06;;;;;;;3.97;2.95;;;;;;;18.07;68.04;99395.00;4174503;28;20037;-77
2022/05/24 03:58:07;;;;;;;4.78;2.50;;;;;;;18.03;68.23;99396.84;4172005;28;20033;-73
2022/05/24 04:00:13;;;;;;;3.30;2.80;;;;;;;18.02;67.26;99397.78;4181750;28;20036;-75
2022/05/24 04:02:16;;;;;;;4.85;2.70;;;;;;;18.04;67.23;99398.56;4179017;28;20060;-74
2022/05/24 04:04:19;;;;;;;4.30;2.80;;;;;;;18.03;67.10;99396.84;4172213;28;20074;-73
2022/05/24 04:06:22;;;;;;;3.95;2.58;;;;;;;17.99;67.15;99387.38;4181810;28;20401;-73
2022/05/24 04:08:26;;;;;;;7.20;2.42;;;;;;;18.05;67.17;99394.19;4194637;28;20143;-74
2022/05/24 04:10:31;;;;;;;5.03;2.63;;;;;;;18.07;66.71;99393.22;4178200;28;20041;-72
2022/05/24 04:12:34;;;;;;;4.22;2.60;;;;;;;18.04;66.72;99395.94;4179688;28;20051;-72
2022/05/24 04:14:37;;;;;;;3.95;2.83;;;;;;;18.11;66.19;99392.19;4178674;28;20044;-72
2022/05/24 04:16:40;;;;;;;3.08;2.60;;;;;;;18.01;66.63;99398.69;4193107;28;20052;-73
2022/05/24 04:18:43;;;;;;;5.72;2.63;;;;;;;17.99;66.59;99397.88;4170695;28;20065;-72
2022/05/24 04:20:46;;;;;;;3.83;2.08;;;;;;;17.92;66.93;99420.88;4171002;28;20045;-74
2022/05/24 04:22:52;;;;;;;3.30;2.13;;;;;;;17.98;67.03;99427.72;4173329;28;20390;-73
2022/05/24 04:24:54;;;;;;;3.63;1.77;;;;;;;18.05;66.98;99438.91;4174295;28;20068;-74
2022/05/24 04:26:59;;;;;;;4.18;2.00;;;;;;;18.10;66.20;99447.50;4166558;28;20042;-70
2022/05/24 04:29:02;;;;;;;5.00;1.90;;;;;;;18.05;66.71;99452.91;4180701;28;20376;-70
2022/05/24 04:31:04;;;;;;;4.25;2.53;;;;;;;18.02;66.24;99442.50;4172658;28;20043;-72
2022/05/24 04:33:07;;;;;;;4.35;1.92;;;;;;;17.94;66.35;99437.47;4177365;28;20041;-71
2022/05/24 04:35:11;;;;;;;3.55;2.15;;;;;;;18.03;66.10;99432.81;4180992;28;20065;-72
2022/05/24 04:37:14;;;;;;;8.45;2.67;;;;;;;18.14;66.28;99434.19;4175577;28;20029;-71
2022/05/24 04:39:17;;;;;;;1.95;1.65;;;;;;;18.23;66.12;99437.41;4175353;28;20517;-68
2022/05/24 04:43:42;;;;;;;5.05;1.92;;;;;;;18.22;64.83;99430.44;4176023;28;20041;-64
2022/05/24 04:45:45;;;;;;;3.30;2.13;;;;;;;18.18;64.77;99415.66;4179534;28;20037;-64
2022/05/24 04:47:50;;;;;;;2.25;1.75;;;;;;;17.92;65.65;99427.94;4165282;28;20120;-64
2022/05/24 04:49:56;;;;;;;2.72;1.77;;;;;;;17.79;65.50;99436.16;4180742;28;20140;-64
2022/05/24 04:52:02;;;;;;;3.33;1.63;;;;;;;17.67;66.03;99435.69;4170628;28;20289;-64
2022/05/24 04:54:07;;;;;;;2.55;2.10;;;;;;;17.56;65.88;99438.66;4180609;28;20120;-64
2022/05/24 04:56:10;;;;;;;2.65;1.50;;;;;;;17.62;65.91;99441.09;4166398;28;20048;-64
2022/05/24 04:58:13;;;;;;;3.42;1.63;;;;;;;17.69;65.97;99445.25;4164735;28;20068;-64
2022/05/24 05:00:18;;;;;;;4.38;1.70;;;;;;;17.72;65.53;99436.41;4165330;28;20520;-64
2022/05/24 05:02:24;;;;;;;3.67;2.13;;;;;;;17.67;65.71;99446.19;4165431;28;20049;-64
2022/05/24 05:04:27;;;;;;;3.20;1.83;;;;;;;17.69;64.95;99445.25;4165254;28;20041;-64
2022/05/24 05:06:30;;;;;;;2.00;1.25;;;;;;;17.58;65.30;99448.22;4171245;28;20132;-64
2022/05/24 05:08:32;;;;;;;2.78;1.40;;;;;;;17.67;65.07;99457.59;4179965;28;20120;-64
2022/05/24 05:10:36;;;;;;;3.17;1.50;;;;;;;17.72;64.59;99447.78;4165225;28;20053;-64
2022/05/24 05:12:41;;;;;;;2.28;1.45;;;;;;;17.79;64.67;99462.44;4163890;28;20049;-64
2022/05/24 05:14:44;;;;;;;;;;;;;;;17.73;65.07;99452.13;4169763;28;20477;-64
2022/05/24 05:16:48;;;;;;;1.40;1.30;;;;;;;17.83;64.88;99451.84;4175214;28;20291;-64
2022/05/24 05:18:52;;;;;;;6.50;1.70;;;;;;;17.82;64.40;99461.50;4180027;28;20115;-64
2022/05/24 05:20:54;;;;;;;9.82;1.75;;;;;;;17.80;64.21;99463.34;4179702;28;20076;-64
2022/05/24 05:22:57;;;;;;;1.27;1.10;;;;;;;17.67;64.84;99478.63;4180630;28;20056;-64
2022/05/24 05:25:01;;;;;;;3.20;1.17;;;;;;;17.68;64.27;99475.06;4176374;28;20037;-64
2022/05/24 05:27:05;;;;;;;5.32;1.35;;;;;;;17.63;64.42;99474.34;4163796;28;20049;-64
2022/05/24 05:29:08;;;;;;;4.25;1.30;;;;;;;17.60;64.75;99479.72;4164558;28;20080;-64
2022/05/24 05:31:16;;;;;;;1.58;1.17;;;;;;;17.50;65.01;99496.66;4164930;28;20034;-64
2022/05/24 05:33:21;;;;;;;2.72;1.13;;;;;;;17.45;65.32;99505.53;4164920;28;20060;-65
2022/05/24 05:35:24;;;;;;;3.08;1.40;;;;;;;17.45;65.13;99505.53;4163678;28;20037;-64
2022/05/24 05:37:28;;;;;;;2.60;1.10;;;;;;;17.43;65.40;99512.63;4175650;28;20036;-64
2022/05/24 05:39:32;;;;;;;1.33;1.00;;;;;;;17.42;65.15;99513.53;4173852;28;20045;-64
2022/05/24 05:41:34;;;;;;;1.90;1.05;;;;;;;17.47;65.22;99513.38;4179900;28;20064;-64
2022/05/24 05:43:37;;;;;;;0.90;0.82;;;;;;;17.40;65.36;99512.69;4180036;28;20040;-64
2022/05/24 05:45:40;;;;;;;2.30;1.00;;;;;;;17.25;65.27;99529.75;4176765;28;20550;-64
2022/05/24 05:47:43;;;;;;;1.33;0.90;;;;;;;17.15;65.62;99528.28;4168526;28;20136;-64
2022/05/24 05:49:48;;;;;;;3.70;1.13;;;;;;;17.20;65.42;99525.53;4177609;28;20055;-64
2022/05/24 05:51:53;;;;;;;3.90;1.10;;;;;;;17.17;65.44;99528.25;4176077;28;20124;-64
2022/05/24 05:53:56;;;;;;;3.40;0.80;;;;;;;17.20;64.84;99530.78;4179837;28;20128;-64
2022/05/24 05:55:59;;;;;;;6.28;1.48;;;;;;;17.24;64.24;99521.91;4180992;28;20073;-64
2022/05/24 05:58:02;;;;;;;3.08;1.42;;;;;;;17.30;64.33;99521.75;4179390;28;20095;-64
2022/05/24 06:00:08;;;;;;;10.13;1.35;;;;;;;17.38;63.05;99519.75;4180913;28;20048;-64
2022/05/24 06:02:18;;;;;;;6.68;1.10;;;;;;;17.39;61.59;99536.38;4177920;28;20127;-64
2022/05/24 06:04:21;;;;;;;2.70;0.98;;;;;;;17.42;60.84;99537.16;4180768;28;20032;-64
2022/05/24 06:06:29;;;;;;;2.13;0.70;;;;;;;17.48;60.67;99551.00;4179530;28;20114;-64
2022/05/24 06:08:32;;;;;;;0.40;0.40;;;;;;;17.48;59.47;99556.28;4164080;28;20120;-64
2022/05/24 06:10:37;;;;;;;1.63;0.65;;;;;;;17.53;60.05;99562.28;4164346;28;20519;-64
2022/05/24 06:12:40;;;;;;;3.03;0.50;;;;;;;17.60;59.25;99558.56;4188412;28;20072;-66
2022/05/24 06:14:43;;;;;;;2.72;0.50;;;;;;;17.67;58.37;99570.63;4172344;28;20037;-64
2022/05/24 06:17:01;;;;;;;1.02;0.50;;;;;;;17.63;57.37;99579.50;4174851;28;20033;-64
2022/05/24 06:19:06;;;;;;;1.02;0.40;;;;;;;17.62;57.32;99585.66;4172043;28;20040;-65
2022/05/24 06:21:09;;;;;;;7.30;0.85;;;;;;;17.54;57.10;99593.75;4177950;28;20043;-64
2022/05/24 06:23:14;;;;;;;4.63;0.63;;;;;;;17.55;56.74;99589.34;4174011;28;20041;-64
2022/05/24 06:25:16;;;;;;;0.45;0.32;;;;;;;17.47;56.81;99592.22;4164226;28;20586;-64
2022/05/24 06:27:20;;;;;;;0.47;0.40;;;;;;;17.49;57.16;99605.31;4177553;28;20503;-64
2022/05/24 06:29:24;;;;;;;0.68;0.40;;;;;;;17.43;56.66;99616.84;4162495;28;20033;-64
2022/05/24 06:31:27;;;;;;;0.50;0.28;;;;;;;17.47;56.67;99622.88;4164124;28;20041;-64
2022/05/24 06:33:35;;;;;;;1.45;0.50;;;;;;;17.39;56.24;99628.34;4162992;28;20076;-63
2022/05/24 06:35:39;;;;;;;0.82;0.43;;;;;;;17.34;56.48;99631.09;4177499;28;20296;-64
2022/05/24 06:37:42;;;;;;;;;;;;;;;17.22;56.80;99639.31;4169873;28;20045;-64
2022/05/24 06:39:47;;;;;;;0.88;0.65;;;;;;;17.43;57.19;99641.38;4163928;28;19956;-63
2022/05/24 06:41:50;;;;;;;2.03;0.50;;;;;;;17.42;56.76;99641.38;4162838;28;20065;-64
2022/05/24 06:43:53;;;;;;;3.22;0.43;;;;;;;17.52;57.15;99647.25;4177443;28;20037;-64
2022/05/24 06:45:57;;;;;;;0.82;0.55;;;;;;;17.45;56.44;99644.81;4166428;28;20045;-63
2022/05/24 06:48:02;;;;;;;0.40;0.40;;;;;;;17.39;56.56;99642.34;4162428;28;20600;-64
2022/05/24 06:50:08;;;;;;;0.65;0.38;;;;;;;17.46;57.10;99627.25;4163951;28;20045;-64
2022/05/24 06:52:11;;;;;;;0.55;0.43;;;;;;;17.60;57.28;99634.78;4178342;28;20043;-64
2022/05/24 06:54:15;;;;;;;1.05;0.60;;;;;;;17.63;57.19;99629.44;4163834;28;20375;-64
2022/05/24 06:56:19;;;;;;;1.02;0.60;;;;;;;17.73;57.31;99636.16;4163937;28;20045;-64
2022/05/24 06:58:25;;;;;;;1.20;0.55;;;;;;;17.64;57.26;99639.06;4164699;28;20557;-64
2022/05/24 07:02:49;;;;;;;1.42;0.60;;;;;;;17.50;57.76;99656.97;4179510;28;20041;-64
2022/05/24 07:04:58;;;;;;;1.60;0.60;;;;;;;17.51;58.51;99659.56;4183589;28;20140;-64
2022/05/24 07:07:00;;;;;;;1.52;0.50;;;;;;;17.51;59.60;99656.03;4168834;28;20099;-64
2022/05/24 07:09:03;;;;;;;1.02;0.60;;;;;;;17.55;60.62;99658.56;4166780;28;20038;-64
2022/05/24 07:11:06;;;;;;;2.50;0.70;;;;;;;17.51;61.53;99663.94;4165878;28;20402;-64
2022/05/24 07:13:13;;;;;;;2.90;1.00;;;;;;;17.44;62.32;99669.34;4175766;28;20056;-64
2022/05/24 07:15:16;;;;;;;2.28;0.85;;;;;;;17.43;62.81;99690.41;4182661;28;20051;-63
2022/05/24 07:17:19;;;;;;;1.52;0.80;;;;;;;17.32;63.12;99698.59;4181471;28;20124;-64
2022/05/24 07:19:23;;;;;;;2.80;0.60;;;;;;;17.25;63.49;99721.50;4164985;28;20065;-64
2022/05/24 07:21:26;;;;;;;2.40;0.82;;;;;;;17.19;64.04;99726.06;4166963;28;20410;-64
2022/05/24 07:23:29;;;;;;;2.90;1.02;;;;;;;17.06;64.14;99728.13;4166833;28;20124;-64
2022/05/24 07:25:32;;;;;;;2.85;0.98;;;;;;;17.07;64.09;99725.47;4166881;28;20037;-64
2022/05/24 07:27:35;;;;;;;6.95;1.08;;;;;;;17.13;64.48;99723.56;4166787;28;20300;-64
2022/05/24 07:29:40;;;;;;;3.05;0.95;;;;;;;17.19;63.96;99718.19;4166539;28;20041;-64
2022/05/24 07:31:43;;;;;;;4.35;1.13;;;;;;;17.21;64.37;99722.50;4184127;28;20072;-64
2022/05/24 07:33:46;;;;;;;3.65;1.02;;;;;;;17.31;64.20;99717.88;4178673;28;20131;-64
2022/05/24 07:35:49;;;;;;;2.28;0.95;;;;;;;17.19;63.23;99733.97;4178457;28;20183;-64
2022/05/24 07:37:51;;;;;;;3.83;0.85;;;;;;;17.13;63.27;99740.22;4165152;28;20132;-64
2022/05/24 07:45:48;;;;;;;4.78;0.90;;;;;;;17.02;63.10;99735.22;4182280;28;20068;-64
2022/05/24 07:47:18;;;;;;;0.32;0.32;;;;;;;17.46;63.19;99724.50;4181702;28;20036;-64
2022/05/24 07:49:21;;;;;;;1.80;0.73;;;;;;;17.71;63.21;99737.00;4174463;28;20045;-64
2022/05/24 07:51:24;;;;;;;1.48;0.63;;;;;;;17.95;63.50;99754.75;4165208;28;20043;-64
2022/05/24 07:53:30;;;;;;;3.17;0.82;;;;;;;17.98;61.00;99742.44;4165488;28;20418;-67
2022/05/24 07:55:33;;;;;;;2.38;1.23;;;;;;;18.00;60.43;99756.41;4180922;28;20036;-64
2022/05/24 07:57:38;;;;;;;4.57;0.95;;;;;;;18.09;60.79;99748.25;4172692;28;20584;-64
2022/05/24 07:59:43;;;;;;;2.47;0.98;;;;;;;18.26;61.09;99745.16;4166168;28;20053;-64
2022/05/24 08:01:48;;;;;;;4.15;0.70;;;;;;;18.25;59.98;99751.31;4174451;28;20465;-64
2022/05/24 08:03:51;;;;;;;3.63;0.80;;;;;;;18.24;59.62;99758.34;4159513;28;20131;-64
2022/05/24 08:05:55;;;;;;;1.58;0.60;;;;;;;18.37;58.71;99760.59;4177892;28;20037;-64
2022/05/24 08:07:57;;;;;;;3.83;1.07;;;;;;;18.21;58.45;99757.56;4176520;28;20041;-64
2022/05/24 08:10:00;;;;;;;1.05;0.50;;;;;;;18.13;57.97;99753.38;4181312;28;20128;-64
2022/05/24 08:12:04;;;;;;;1.10;0.52;;;;;;;18.05;57.08;99755.38;4168662;28;20055;-64
2022/05/24 08:14:07;;;;;;;1.95;0.80;;;;;;;18.22;56.49;99761.91;4165169;28;20076;-64
2022/05/24 08:16:10;;;;;;;3.50;0.65;;;;;;;18.19;56.69;99748.84;4168063;28;20136;-64
2022/05/24 08:18:14;;;;;;;2.28;1.17;;;;;;;18.01;55.51;99753.72;4182076;28;20045;-64
2022/05/24 08:20:18;;;;;;;1.52;0.63;;;;;;;18.03;56.22;99753.69;4166674;28;20042;-64
2022/05/24 08:22:21;;;;;;;1.45;0.50;;;;;;;17.97;55.50;99773.13;4165913;28;20116;-63
2022/05/24 08:24:24;;;;;;;1.25;0.73;;;;;;;18.00;55.26;99770.41;4167225;28;20582;-63
2022/05/24 08:26:27;;;;;;;6.57;1.50;;;;;;;17.96;54.65;99768.78;4181508;28;20037;-63
2022/05/24 08:28:30;;;;;;;0.52;0.50;;;;;;;18.04;54.15;99769.44;4165465;28;20125;-64
2022/05/24 08:30:41;;;;;;;2.25;1.05;;;;;;;18.25;54.78;99770.59;4165807;28;20042;-64
2022/05/24 08:32:46;;;;;;;1.30;0.52;;;;;;;18.34;52.89;99774.75;4168000;28;20056;-64
2022/05/24 08:34:51;;;;;;;2.22;0.77;;;;;;;18.30;53.66;99762.56;4179862;28;20071;-63
2022/05/24 08:36:53;;;;;;;2.72;0.80;;;;;;;18.46;53.67;99771.75;4178243;28;20132;-63
2022/05/24 08:38:56;;;;;;;4.88;0.73;;;;;;;18.47;53.14;99775.22;4188637;28;20526;-64
2022/05/24 08:41:03;;;;;;;7.95;1.20;;;;;;;18.47;53.40;99772.59;4182148;28;20037;-63
2022/05/24 08:43:45;;;;;;;3.45;0.98;;;;;;;18.49;51.90;99782.19;4182143;28;20041;-63
2022/05/24 08:48:26;;;;;;;3.95;0.70;;;;;;;18.46;51.45;99771.75;4180579;28;20044;-64
2022/05/24 08:50:33;;;;;;;1.58;0.70;;;;;;;18.63;51.05;99778.25;4180133;28;20851;-63
2022/05/24 08:52:42;;;;;;;1.15;0.50;;;;;;;18.65;50.12;99779.94;4173650;28;20458;-63
2022/05/24 08:54:46;;;;;;;0.95;0.52;;;;;;;18.58;50.31;99772.28;4182002;28;20391;-63
2022/05/24 08:56:53;;;;;;;2.33;0.85;;;;;;;18.47;51.10;99776.09;4182114;28;20140;-63
2022/05/24 08:59:01;;;;;;;7.32;1.42;;;;;;;18.51;51.34;99770.75;4180611;28;20052;-63
2022/05/24 09:01:06;;;;;;;4.13;0.80;;;;;;;18.54;50.80;99774.13;4180428;28;20518;-63
2022/05/24 09:03:10;;;;;;;0.60;0.60;;;;;;;18.38;50.97;99781.63;4174356;28;20033;-63
2022/05/24 09:05:26;;;;;;;0.95;0.60;;;;;;;18.37;51.67;99784.28;4180461;28;20095;-63
2022/05/24 09:07:40;;;;;;;2.70;0.70;;;;;;;18.34;51.60;99800.19;4181842;28;20053;-63
2022/05/24 09:09:51;;;;;;;1.63;0.80;;;;;;;18.31;52.49;99806.38;4180328;28;20063;-63
2022/05/24 09:12:05;;;;;;;1.27;0.70;;;;;;;18.29;52.29;99818.72;4181155;28;20403;-63
2022/05/24 09:14:12;;;;;;;1.67;0.60;;;;;;;18.31;52.64;99814.28;4174234;28;20523;-63
2022/05/24 09:16:17;;;;;;;2.75;0.82;;;;;;;18.46;52.94;99815.63;4163689;28;20590;-62
2022/05/24 09:18:37;;;;;;;4.03;0.80;;;;;;;18.38;53.03;99815.81;4164438;28;20044;-62
2022/05/24 09:20:44;;;;;;;1.63;0.38;;;;;;;18.42;52.24;99822.72;4196871;28;20047;-62
2022/05/24 09:22:48;;;;;;;2.05;0.80;;;;;;;18.39;52.01;99829.88;4180266;28;20068;-63
2022/05/24 09:24:56;;;;;;;1.88;0.52;;;;;;;18.41;52.19;99828.03;4196252;28;20465;-62
2022/05/24 09:27:07;;;;;;;0.60;0.43;;;;;;;18.55;52.08;99820.63;4168173;28;20558;-62
2022/05/24 09:29:13;;;;;;;1.75;0.88;;;;;;;18.46;52.17;99832.28;4163445;28;20064;-62
2022/05/24 09:31:25;;;;;;;0.50;0.47;;;;;;;18.58;52.27;99830.22;4164974;28;20407;-62
2022/05/24 09:33:31;;;;;;;1.63;0.73;;;;;;;18.79;51.24;99826.94;4164924;28;20049;-62
2022/05/24 09:35:41;;;;;;;1.40;0.52;;;;;;;18.90;51.25;99815.25;4164886;28;20069;-62
2022/05/24 09:38:08;;;;;;;0.95;0.60;;;;;;;18.88;51.87;99815.31;4166742;28;20522;-63
2022/05/24 09:40:19;;;;;;;1.17;0.60;;;;;;;18.82;51.58;99821.59;4172860;28;20064;-63
2022/05/24 09:42:27;;;;;;;1.23;0.50;;;;;;;18.86;51.03;99818.84;4163591;28;20045;-63
2022/05/24 09:44:44;;;;;;;1.05;0.80;;;;;;;18.98;51.75;99819.38;4178976;28;20516;-63
2022/05/24 09:46:48;;;;;;;2.47;0.80;;;;;;;19.18;51.13;99821.38;4179654;28;20055;-63
2022/05/24 09:48:56;;;;;;;3.23;0.80;;;;;;;19.27;50.75;99817.56;4176639;28;20037;-62
2022/05/24 09:51:00;;;;;;;2.20;0.70;;;;;;;19.39;51.49;99819.00;4177691;28;20319;-64
2022/05/24 09:53:13;;;;;;;;;;;;;;;19.45;51.32;99821.41;4175520;28;20135;-64
2022/05/24 09:55:23;;;;;;;1.58;0.73;;;;;;;19.62;50.56;99830.53;4172771;28;19921;-64
2022/05/24 09:57:29;;;;;;;2.53;0.80;;;;;;;19.61;50.84;99820.88;4193114;28;20063;-63
2022/05/24 09:59:34;;;;;;;2.50;0.70;;;;;;;19.86;50.10;99832.38;4176974;28;20090;-63
2022/05/24 10:01:37;;;;;;;;;;;;;;;19.36;50.33;99829.59;4173053;28;20048;-64
2022/05/24 10:03:42;;;;;;;3.40;0.73;;;;;;;19.42;50.34;99834.69;4146891;28;19928;-63
2022/05/24 10:05:56;;;;;;;1.35;0.65;;;;;;;19.58;50.35;99835.06;4163377;28;20037;-64
2022/05/24 10:08:01;;;;;;;5.03;0.95;;;;;;;19.70;49.98;99833.78;4164132;28;20542;-64
2022/05/24 10:10:10;;;;;;;2.05;0.80;;;;;;;19.83;49.62;99835.13;4164444;28;20029;-63
2022/05/24 10:12:23;;;;;;;1.27;0.82;;;;;;;19.76;49.33;99845.91;4168729;28;20116;-63
2022/05/24 10:14:36;;;;;;;2.15;0.55;;;;;;;19.91;49.43;99844.56;4172987;28;20064;-63
2022/05/24 10:16:44;;;;;;;2.38;1.00;;;;;;;19.90;48.37;99842.81;4180808;28;20514;-64